Time;durP1;ratioP1;P1;durP2;ratioP2;P2;SDS_P1;SDS_P2;PMS_P1;PMS_P2;Temp;Humidity;BMP_temperature;BMP_pressure;BME280_temperature;BME280_humidity;BME280_pressure;Samples;Min_cycle;Max_cycle;Signal;HPM_P1;HPM_P2
2022/12/31 00:00:20;;;;;;;8.73;2.15;;;;;;;11.51;100.00;100199.88;10381144;28;20112;-71
2022/12/31 00:05:21;;;;;;;5.32;1.83;;;;;;;11.48;100.00;100198.44;10380820;28;20454;-71
2022/12/31 00:10:22;;;;;;;3.10;2.38;;;;;;;11.46;100.00;100197.84;10379411;28;20401;-71
2022/12/31 00:15:23;;;;;;;3.92;2.45;;;;;;;11.46;100.00;100202.44;10381002;28;20061;-71
2022/12/31 00:20:23;;;;;;;10.40;2.92;;;;;;;11.47;100.00;100206.81;10380232;28;20037;-72
2022/12/31 00:25:24;;;;;;;10.95;3.05;;;;;;;11.42;100.00;100210.16;10379013;28;20042;-71
2022/12/31 00:30:28;;;;;;;14.90;3.85;;;;;;;11.41;100.00;100203.09;10378261;28;20059;-72
2022/12/31 00:35:28;;;;;;;9.32;3.50;;;;;;;11.37;100.00;100207.28;10379173;28;20100;-72
2022/12/31 00:40:29;;;;;;;18.92;3.60;;;;;;;11.35;100.00;100202.06;10378938;28;20188;-71
2022/12/31 00:45:30;;;;;;;14.00;3.38;;;;;;;11.32;100.00;100186.25;10379328;28;20176;-71
2022/12/31 00:50:30;;;;;;;8.13;2.40;;;;;;;11.31;100.00;100192.72;10379757;28;20037;-72
2022/12/31 00:55:31;;;;;;;9.95;3.13;;;;;;;11.33;100.00;100192.53;10377741;28;20121;-72
2022/12/31 01:00:32;;;;;;;5.70;2.65;;;;;;;11.33;100.00;100200.66;10378245;28;20092;-72
2022/12/31 01:05:32;;;;;;;7.30;1.98;;;;;;;11.32;100.00;100190.84;10377931;28;20076;-73
2022/12/31 01:15:52;;;;;;;7.68;2.80;;;;;;;11.28;100.00;100176.91;10378563;28;20057;-71
2022/12/31 01:20:52;;;;;;;9.77;1.75;;;;;;;11.22;100.00;100185.91;10377455;28;20050;-71
2022/12/31 01:25:53;;;;;;;8.77;2.45;;;;;;;11.15;100.00;100182.41;10377836;28;20046;-71
2022/12/31 01:30:54;;;;;;;17.95;4.63;;;;;;;11.12;100.00;100182.84;10376426;28;20046;-71
2022/12/31 01:35:54;;;;;;;17.27;4.20;;;;;;;11.01;100.00;100183.53;10359888;28;20026;-72
2022/12/31 01:40:55;;;;;;;4.75;3.08;;;;;;;10.94;100.00;100191.72;10377788;28;20046;-71
2022/12/31 01:45:55;;;;;;;5.57;2.47;;;;;;;10.90;100.00;100185.06;10377663;28;20389;-71
2022/12/31 01:50:56;;;;;;;5.75;2.05;;;;;;;10.85;100.00;100177.63;10378624;28;20382;-71
2022/12/31 01:55:57;;;;;;;7.68;2.08;;;;;;;10.81;100.00;100162.81;10376156;28;20026;-71
2022/12/31 02:00:57;;;;;;;15.02;2.20;;;;;;;10.83;100.00;100159.91;10375921;28;20038;-71
2022/12/31 02:06:12;;;;;;;6.47;1.90;;;;;;;10.80;100.00;100200.97;10375840;28;20164;-71
2022/12/31 02:11:27;;;;;;;4.43;2.33;;;;;;;10.78;100.00;100198.47;10376426;28;20041;-71
2022/12/31 02:16:34;;;;;;;10.85;3.28;;;;;;;10.67;100.00;100221.66;10375863;28;20184;-70
2022/12/31 02:21:59;;;;;;;14.82;2.70;;;;;;;10.63;100.00;100228.53;10375268;28;20457;-70
2022/12/31 02:27:08;;;;;;;9.18;3.10;;;;;;;10.58;100.00;100220.22;10391499;28;20034;-70
2022/12/31 02:32:30;;;;;;;11.30;2.40;;;;;;;10.50;100.00;100214.19;10374549;28;20041;-67
2022/12/31 02:37:31;;;;;;;9.32;1.70;;;;;;;10.48;100.00;100215.25;10376138;28;20076;-67
2022/12/31 02:42:31;;;;;;;5.55;1.63;;;;;;;10.45;100.00;100225.69;10372935;28;20065;-67
2022/12/31 02:48:08;;;;;;;5.22;2.13;;;;;;;10.34;100.00;100229.03;10374567;28;20049;-66
2022/12/31 02:53:40;;;;;;;7.15;2.38;;;;;;;10.30;100.00;100238.63;10385488;28;20038;-66
2022/12/31 03:04:30;;;;;;;5.07;1.95;;;;;;;10.16;100.00;100251.34;10374512;28;20038;-69
2022/12/31 03:09:23;;;;;;;3.97;2.08;;;;;;;10.14;100.00;100242.59;10374170;28;20528;-68
2022/12/31 03:14:23;;;;;;;0.60;0.60;;;;;;;10.06;100.00;100237.41;10373629;28;20038;-68
2022/12/31 03:30:22;;;;;;;0.40;0.40;;;;;;;9.87;100.00;100209.34;10377163;28;20038;-70
2022/12/31 03:35:22;;;;;;;0.50;0.50;;;;;;;9.93;100.00;100201.22;10382638;28;20041;-69
2022/12/31 03:40:24;;;;;;;0.50;0.50;;;;;;;9.96;100.00;100205.38;10382380;28;20331;-69
2022/12/31 03:45:24;;;;;;;0.47;0.47;;;;;;;9.96;100.00;100171.06;10379927;28;20026;-69
2022/12/31 03:50:25;;;;;;;0.85;0.85;;;;;;;9.97;100.00;100186.22;10396323;28;20038;-69
2022/12/31 03:55:25;;;;;;;0.77;0.77;;;;;;;9.96;100.00;100208.91;10391103;28;20034;-69
2022/12/31 04:00:26;;;;;;;3.72;2.67;;;;;;;10.00;100.00;100198.50;10382355;28;20428;-69
2022/12/31 04:05:26;;;;;;;0.40;0.40;;;;;;;9.99;100.00;100221.19;10385878;28;20065;-69
2022/12/31 04:10:26;;;;;;;0.40;0.40;;;;;;;10.05;100.00;100214.09;10391494;28;20442;-69
2022/12/31 04:15:27;;;;;;;0.40;0.40;;;;;;;10.12;100.00;100207.63;10386631;28;20058;-70
2022/12/31 04:20:27;;;;;;;0.40;0.40;;;;;;;10.10;100.00;100203.47;10384486;28;20034;-70
2022/12/31 04:25:28;;;;;;;2.03;1.92;;;;;;;10.15;100.00;100198.28;10383440;28;20038;-69
2022/12/31 04:30:28;;;;;;;1.73;1.73;;;;;;;10.13;100.00;100194.94;10381643;28;20040;-70
2022/12/31 04:35:28;;;;;;;0.47;0.47;;;;;;;10.18;100.00;100203.25;10385142;28;20455;-68
2022/12/31 04:40:29;;;;;;;1.13;1.08;;;;;;;10.21;100.00;100192.84;10386648;28;20038;-69
2022/12/31 04:45:29;;;;;;;0.40;0.40;;;;;;;10.27;100.00;100195.75;10382034;28;20150;-68
2022/12/31 04:50:29;;;;;;;0.90;0.90;;;;;;;10.27;100.00;100199.28;10379933;28;20470;-68
2022/12/31 04:55:30;;;;;;;0.38;0.38;;;;;;;10.35;100.00;100201.78;10388734;28;20064;-68
2022/12/31 05:00:30;;;;;;;1.83;1.63;;;;;;;10.32;100.00;100207.63;10402866;28;20041;-69
2022/12/31 05:05:31;;;;;;;2.60;1.23;;;;;;;10.42;100.00;100204.47;10396843;28;20033;-68
2022/12/31 05:10:31;;;;;;;0.45;0.45;;;;;;;10.48;100.00;100187.38;10383502;28;20076;-69
2022/12/31 05:15:31;;;;;;;0.63;0.63;;;;;;;10.52;100.00;100202.13;10386545;28;20116;-68
2022/12/31 05:20:32;;;;;;;0.40;0.40;;;;;;;10.61;100.00;100190.00;10387321;28;20087;-67
2022/12/31 05:25:32;;;;;;;0.50;0.50;;;;;;;10.66;100.00;100186.69;10400277;28;20029;-67
2022/12/31 05:30:33;;;;;;;0.35;0.35;;;;;;;10.68;100.00;100187.28;10409365;28;20034;-68
2022/12/31 05:35:33;;;;;;;0.40;0.40;;;;;;;10.73;100.00;100184.75;10411952;28;20072;-67
2022/12/31 05:40:33;;;;;;;0.50;0.50;;;;;;;10.82;100.00;100179.94;10410640;28;20034;-67
2022/12/31 05:45:34;;;;;;;0.50;0.50;;;;;;;10.90;100.00;100194.03;10408386;28;20037;-70
2022/12/31 05:50:34;;;;;;;0.30;0.30;;;;;;;10.96;100.00;100192.34;10399616;28;20037;-67
2022/12/31 05:55:35;;;;;;;0.50;0.50;;;;;;;11.02;100.00;100186.06;10385210;28;20044;-67
2022/12/31 06:00:35;;;;;;;0.50;0.50;;;;;;;11.06;100.00;100186.44;10384539;28;20482;-68
2022/12/31 06:05:39;;;;;;;0.40;0.40;;;;;;;11.19;100.00;100197.19;10406600;28;20030;-67
2022/12/31 06:10:39;;;;;;;0.43;0.43;;;;;;;11.32;100.00;100196.25;10401084;28;20041;-67
2022/12/31 06:15:40;;;;;;;0.40;0.40;;;;;;;11.45;100.00;100200.75;10406108;28;20046;-67
2022/12/31 06:20:40;;;;;;;0.40;0.40;;;;;;;11.56;100.00;100195.47;10405633;28;20046;-67
2022/12/31 06:25:41;;;;;;;1.60;1.60;;;;;;;11.68;100.00;100206.44;10406885;28;20038;-66
2022/12/31 06:30:41;;;;;;;0.50;0.50;;;;;;;11.77;100.00;100193.41;10408549;28;20057;-66
2022/12/31 06:35:41;;;;;;;0.50;0.50;;;;;;;11.82;100.00;100207.94;10406265;28;20152;-66
2022/12/31 06:40:42;;;;;;;1.27;1.00;;;;;;;11.90;100.00;100201.47;10398127;28;20103;-65
2022/12/31 06:45:43;;;;;;;0.77;0.77;;;;;;;11.92;100.00;100203.94;10381699;28;20034;-65
2022/12/31 06:50:43;;;;;;;0.50;0.50;;;;;;;11.99;100.00;100210.13;10380587;28;20029;-66
2022/12/31 06:55:44;;;;;;;0.47;0.47;;;;;;;12.03;100.00;100211.38;10375848;28;20041;-66
2022/12/31 07:01:13;;;;;;;0.50;0.50;;;;;;;12.05;100.00;100212.78;10374538;28;20041;-66
2022/12/31 07:06:33;;;;;;;0.47;0.47;;;;;;;12.07;100.00;100223.41;10371769;28;20092;-67
2022/12/31 07:11:45;;;;;;;0.50;0.50;;;;;;;12.14;100.00;100228.78;10374485;28;20065;-67
2022/12/31 07:16:51;;;;;;;0.40;0.40;;;;;;;12.13;100.00;100224.41;10373462;28;20050;-67
2022/12/31 07:21:52;;;;;;;0.47;0.47;;;;;;;12.19;100.00;100237.06;10356961;28;20040;-68
2022/12/31 07:27:30;;;;;;;0.60;0.60;;;;;;;12.21;100.00;100233.06;10356617;28;20037;-68
2022/12/31 07:32:53;;;;;;;0.70;0.70;;;;;;;12.21;100.00;100238.50;10378725;28;20054;-68
2022/12/31 07:38:21;;;;;;;0.50;0.50;;;;;;;12.24;100.00;100237.22;10381446;28;20065;-68
2022/12/31 07:43:39;;;;;;;0.30;0.30;;;;;;;12.22;100.00;100240.19;10382698;28;20040;-68
2022/12/31 07:48:40;;;;;;;0.73;0.73;;;;;;;12.20;100.00;100238.75;10396133;28;20113;-68
2022/12/31 07:53:40;;;;;;;0.50;0.50;;;;;;;12.13;100.00;100236.09;10398488;28;20045;-68
2022/12/31 07:58:50;;;;;;;0.40;0.40;;;;;;;12.16;100.00;100243.78;10400764;28;20042;-69
2022/12/31 08:04:00;;;;;;;0.40;0.40;;;;;;;12.16;100.00;100262.78;10380789;28;20026;-68
2022/12/31 08:09:35;;;;;;;0.68;0.68;;;;;;;12.09;100.00;100271.00;10379201;28;20034;-67
2022/12/31 08:14:41;;;;;;;0.52;0.52;;;;;;;11.99;100.00;100276.06;10395652;28;20386;-66
2022/12/31 08:19:42;;;;;;;0.63;0.63;;;;;;;11.98;100.00;100285.28;10397327;28;20038;-66
2022/12/31 08:24:50;;;;;;;0.30;0.30;;;;;;;12.00;100.00;100283.19;10381712;28;20030;-66
2022/12/31 08:29:57;;;;;;;0.47;0.47;;;;;;;12.06;100.00;100320.28;10388020;28;20034;-66
2022/12/31 08:35:19;;;;;;;0.45;0.45;;;;;;;12.18;100.00;100324.97;10380095;28;20029;-66
2022/12/31 08:40:32;;;;;;;0.60;0.60;;;;;;;12.35;100.00;100323.38;10395601;28;20029;-66
2022/12/31 08:45:38;;;;;;;0.50;0.50;;;;;;;12.41;100.00;100348.78;10379699;28;20034;-65
2022/12/31 08:50:38;;;;;;;0.30;0.30;;;;;;;12.45;100.00;100333.72;10379310;28;20047;-66
2022/12/31 08:55:40;;;;;;;4.57;4.13;;;;;;;12.51;100.00;100343.69;10378766;28;20041;-65
2022/12/31 09:00:40;;;;;;;1.13;1.13;;;;;;;12.47;100.00;100356.88;10379241;28;20037;-65
2022/12/31 09:05:44;;;;;;;0.57;0.57;;;;;;;12.60;100.00;100353.19;10378309;28;20332;-67
2022/12/31 09:11:03;;;;;;;6.20;2.13;;;;;;;12.68;100.00;100390.94;10395021;28;20034;-65
2022/12/31 09:16:09;;;;;;;10.75;2.80;;;;;;;12.68;100.00;100360.25;10377194;28;20045;-65
2022/12/31 09:21:11;;;;;;;9.15;3.67;;;;;;;12.66;100.00;100384.91;10379005;28;20414;-65
2022/12/31 09:26:29;;;;;;;5.55;2.58;;;;;;;12.57;100.00;100367.22;10377534;28;20491;-67
2022/12/31 09:31:35;;;;;;;7.28;2.20;;;;;;;12.53;100.00;100385.03;10378284;28;20389;-67
2022/12/31 09:36:40;;;;;;;5.32;2.20;;;;;;;12.57;100.00;100392.53;10376105;28;20481;-67
2022/12/31 09:41:59;;;;;;;5.03;2.92;;;;;;;12.57;100.00;100399.81;10375391;28;20034;-68
2022/12/31 09:47:16;;;;;;;9.30;2.78;;;;;;;12.54;100.00;100386.72;10377824;28;20480;-67
2022/12/31 09:52:35;;;;;;;6.05;2.65;;;;;;;12.61;100.00;100401.06;10376964;28;20042;-67
2022/12/31 09:57:54;;;;;;;0.50;0.50;;;;;;;12.76;100.00;100393.38;10376226;28;20393;-66
2022/12/31 10:02:58;;;;;;;0.60;0.60;;;;;;;12.94;100.00;100413.47;10360974;28;20377;-66
2022/12/31 10:08:05;;;;;;;0.47;0.47;;;;;;;13.00;100.00;100409.84;10374165;28;20057;-66
2022/12/31 10:13:43;;;;;;;0.50;0.50;;;;;;;13.09;100.00;100421.28;10374694;28;20041;-66
2022/12/31 10:18:53;;;;;;;0.75;0.75;;;;;;;12.98;100.00;100425.56;10377038;28;20049;-66
2022/12/31 10:24:11;;;;;;;0.50;0.50;;;;;;;13.04;100.00;100436.34;10376618;28;20026;-65
2022/12/31 10:29:46;;;;;;;0.73;0.73;;;;;;;13.09;100.00;100422.09;10375931;28;20041;-66
2022/12/31 10:34:51;;;;;;;0.50;0.50;;;;;;;13.16;100.00;100449.22;10375262;28;20351;-66
2022/12/31 10:40:08;;;;;;;0.60;0.60;;;;;;;13.19;100.00;100455.03;10374510;28;20028;-66
2022/12/31 10:45:29;;;;;;;1.70;1.70;;;;;;;13.16;100.00;100452.75;10373739;28;20036;-67
2022/12/31 10:50:37;;;;;;;0.50;0.50;;;;;;;13.17;100.00;100451.69;10377128;28;20394;-67
2022/12/31 10:55:53;;;;;;;0.80;0.80;;;;;;;13.14;100.00;100454.84;10379664;28;20034;-68
2022/12/31 11:01:21;;;;;;;0.50;0.50;;;;;;;13.04;100.00;100465.44;10376269;28;20063;-68
2022/12/31 11:06:39;;;;;;;0.55;0.55;;;;;;;12.91;100.00;100443.81;10380753;28;20025;-68
2022/12/31 11:11:57;;;;;;;15.98;2.33;;;;;;;12.85;100.00;100447.44;10382191;28;20026;-68
2022/12/31 11:17:24;;;;;;;0.50;0.50;;;;;;;12.87;100.00;100439.91;10381540;28;20053;-68
2022/12/31 11:22:48;;;;;;;0.50;0.50;;;;;;;12.86;100.00;100458.09;10374008;28;20037;-68
2022/12/31 11:27:56;;;;;;;0.50;0.50;;;;;;;12.89;100.00;100445.91;10380521;28;20041;-66
2022/12/31 11:33:11;;;;;;;0.50;0.50;;;;;;;12.94;100.00;100435.22;10381369;28;20113;-67
2022/12/31 11:38:21;;;;;;;0.70;0.70;;;;;;;13.03;100.00;100428.44;10382768;28;20477;-67
2022/12/31 11:43:55;;;;;;;0.50;0.50;;;;;;;13.13;100.00;100422.47;10382032;28;20413;-68
2022/12/31 11:49:15;;;;;;;0.50;0.50;;;;;;;13.12;100.00;100402.63;10381325;28;20022;-66
2022/12/31 11:54:27;;;;;;;0.40;0.40;;;;;;;13.20;100.00;100402.31;10380742;28;20326;-67
2022/12/31 11:59:28;;;;;;;0.50;0.50;;;;;;;13.29;100.00;100391.16;10381409;28;20100;-67
2022/12/31 12:04:29;;;;;;;0.50;0.50;;;;;;;13.32;100.00;100396.97;10380027;28;20104;-68
2022/12/31 12:09:30;;;;;;;0.85;0.85;;;;;;;13.34;100.00;100402.19;10362463;28;20050;-68
2022/12/31 12:14:32;;;;;;;0.50;0.50;;;;;;;13.29;100.00;100391.16;10378308;28;20143;-67
2022/12/31 12:19:33;;;;;;;0.40;0.40;;;;;;;13.30;100.00;100407.25;10380271;28;20390;-67
2022/12/31 12:24:34;;;;;;;0.60;0.60;;;;;;;13.32;100.00;100436.94;10381014;28;20034;-69
2022/12/31 12:29:34;;;;;;;0.60;0.60;;;;;;;13.24;100.00;100424.44;10380361;28;20033;-67
2022/12/31 12:34:37;;;;;;;0.40;0.40;;;;;;;13.26;100.00;100412.31;10379393;28;20123;-67
2022/12/31 12:39:37;;;;;;;0.65;0.65;;;;;;;13.32;100.00;100409.75;10377715;28;20489;-66
2022/12/31 12:44:38;;;;;;;5.00;4.22;;;;;;;13.31;100.00;100399.94;10379499;28;20036;-67
2022/12/31 12:49:46;;;;;;;0.55;0.55;;;;;;;13.27;100.00;100399.53;10377868;28;20025;-68
2022/12/31 12:54:50;;;;;;;0.70;0.70;;;;;;;13.21;100.00;100400.44;10377098;28;20454;-67
2022/12/31 13:00:03;;;;;;;2.03;1.77;;;;;;;13.23;100.00;100393.69;10378432;28;20489;-67
2022/12/31 13:05:31;;;;;;;3.42;2.72;;;;;;;13.23;100.00;100407.28;10379193;28;20030;-67
2022/12/31 13:10:48;;;;;;;3.15;2.58;;;;;;;13.18;100.00;100423.47;10377891;28;20037;-67
2022/12/31 13:16:04;;;;;;;3.90;2.10;;;;;;;13.17;100.00;100418.25;10379473;28;20060;-67
2022/12/31 13:21:32;;;;;;;0.40;0.40;;;;;;;13.25;100.00;100431.59;10382139;28;20549;-66
2022/12/31 13:26:38;;;;;;;1.73;1.63;;;;;;;13.28;100.00;100422.97;10377946;28;20083;-67
2022/12/31 13:31:38;;;;;;;1.63;1.58;;;;;;;13.23;100.00;100429.03;10360973;28;20116;-67
2022/12/31 13:36:39;;;;;;;1.15;1.15;;;;;;;13.17;100.00;100450.88;10359508;28;20053;-67
2022/12/31 13:42:15;;;;;;;0.50;0.50;;;;;;;13.11;100.00;100446.31;10359259;28;20041;-65
2022/12/31 13:47:44;;;;;;;0.47;0.47;;;;;;;13.06;100.00;100454.34;10341831;28;20474;-65
2022/12/31 13:53:19;;;;;;;0.52;0.52;;;;;;;13.06;100.00;100457.06;10374677;28;20069;-65
2022/12/31 13:58:51;;;;;;;0.60;0.60;;;;;;;13.03;100.00;100450.19;10341932;28;20046;-65
2022/12/31 14:04:07;;;;;;;0.70;0.70;;;;;;;13.00;100.00;100420.72;10376056;28;20466;-65
2022/12/31 14:09:19;;;;;;;0.73;0.73;;;;;;;12.96;100.00;100447.53;10374596;28;20069;-65
2022/12/31 14:14:33;;;;;;;0.60;0.60;;;;;;;12.92;100.00;100442.75;10358691;28;20057;-66
2022/12/31 14:20:15;;;;;;;0.50;0.50;;;;;;;12.90;100.00;100444.88;10359151;28;20042;-65
2022/12/31 14:25:27;;;;;;;0.40;0.40;;;;;;;12.88;100.00;100438.81;10315036;28;20070;-65
2022/12/31 14:30:32;;;;;;;0.88;0.88;;;;;;;12.84;100.00;100440.34;10356921;28;20045;-65
2022/12/31 14:35:50;;;;;;;1.52;1.48;;;;;;;12.84;100.00;100445.78;10341283;28;20091;-65
2022/12/31 14:41:00;;;;;;;10.20;4.72;;;;;;;12.86;100.00;100454.50;10374304;28;20518;-65
2022/12/31 14:46:15;;;;;;;6.93;3.83;;;;;;;12.88;100.00;100455.13;10374501;28;20061;-66
2022/12/31 14:51:16;;;;;;;11.40;8.20;;;;;;;12.85;100.00;100463.72;10373981;28;20052;-65
2022/12/31 14:56:42;;;;;;;11.07;4.10;;;;;;;12.82;100.00;100470.44;10374706;28;20045;-68
2022/12/31 15:01:45;;;;;;;5.43;4.50;;;;;;;12.87;100.00;100467.06;10374417;28;20478;-66
2022/12/31 15:07:08;;;;;;;15.18;6.22;;;;;;;12.77;100.00;100464.84;10374918;28;20399;-67
2022/12/31 15:12:40;;;;;;;12.85;5.70;;;;;;;12.77;100.00;100475.72;10373052;28;20378;-66
2022/12/31 15:17:47;;;;;;;17.08;7.45;;;;;;;12.85;100.00;100463.72;10374799;28;20049;-66
2022/12/31 15:22:48;;;;;;;12.25;6.28;;;;;;;12.88;100.00;100464.13;10374744;28;20049;-66
2022/12/31 15:27:49;;;;;;;9.25;5.32;;;;;;;12.87;100.00;100473.34;10357146;28;20056;-64
2022/12/31 15:32:49;;;;;;;16.90;7.10;;;;;;;12.87;100.00;100461.63;10374149;28;20057;-65
2022/12/31 15:38:00;;;;;;;8.77;5.97;;;;;;;12.70;100.00;100448.63;10376548;28;20038;-65
2022/12/31 15:43:03;;;;;;;16.80;6.10;;;;;;;12.83;100.00;100452.25;10359431;28;20034;-65
2022/12/31 15:48:15;;;;;;;15.80;6.30;;;;;;;12.84;100.00;100445.78;10357174;28;20094;-66
2022/12/31 15:53:28;;;;;;;19.65;8.05;;;;;;;12.82;100.00;100448.69;10380323;28;20022;-66
2022/12/31 15:58:30;;;;;;;14.73;8.18;;;;;;;12.78;100.00;100425.75;10381572;28;20108;-66
2022/12/31 16:03:30;;;;;;;20.35;8.35;;;;;;;12.79;100.00;100414.69;10384584;28;20080;-66
2022/12/31 16:08:32;;;;;;;7.65;6.00;;;;;;;12.70;100.00;100421.44;10385509;28;20481;-66
2022/12/31 16:13:35;;;;;;;13.13;7.00;;;;;;;12.72;100.00;100422.03;10379645;28;20030;-65
2022/12/31 16:18:39;;;;;;;12.07;6.15;;;;;;;12.69;100.00;100411.63;10379380;28;20053;-66
2022/12/31 16:23:40;;;;;;;8.98;5.30;;;;;;;12.66;100.00;100409.34;10381199;28;20046;-66
2022/12/31 16:28:40;;;;;;;14.95;8.00;;;;;;;12.71;100.00;100423.09;10362795;28;20034;-66
2022/12/31 16:33:40;;;;;;;7.15;4.35;;;;;;;12.62;100.00;100396.44;10379553;28;20061;-67
2022/12/31 16:38:41;;;;;;;9.25;4.53;;;;;;;12.75;100.00;100404.47;10378769;28;20037;-67
2022/12/31 16:43:42;;;;;;;15.98;8.15;;;;;;;12.78;100.00;100409.47;10379660;28;20030;-67
2022/12/31 16:49:05;;;;;;;52.67;33.00;;;;;;;12.90;100.00;100404.94;10379181;28;20038;-67
2022/12/31 16:54:05;;;;;;;187.10;138.23;;;;;;;12.96;100.00;100357.03;10378205;28;20030;-67
2022/12/31 16:59:15;;;;;;;16.15;11.27;;;;;;;13.04;100.00;100394.75;10361252;28;20427;-68
2022/12/31 17:04:17;;;;;;;13.65;5.25;;;;;;;13.09;100.00;100403.06;10375789;28;20424;-66
2022/12/31 17:09:22;;;;;;;12.23;6.00;;;;;;;13.24;100.00;100368.22;10377451;28;20108;-67
2022/12/31 17:14:24;;;;;;;11.23;5.03;;;;;;;13.43;100.00;100379.03;10376674;28;20038;-65
2022/12/31 17:19:44;;;;;;;8.68;5.95;;;;;;;13.55;100.00;100381.84;10377160;28;20038;-69
2022/12/31 17:24:46;;;;;;;6.93;4.50;;;;;;;13.58;100.00;100393.06;10378098;28;20072;-67
2022/12/31 17:29:47;;;;;;;4.93;3.45;;;;;;;13.62;100.00;100399.72;10376348;28;20474;-67
2022/12/31 17:34:48;;;;;;;16.08;5.25;;;;;;;13.68;100.00;100373.47;10376707;28;20045;-67
2022/12/31 17:39:50;;;;;;;12.25;4.93;;;;;;;13.73;100.00;100379.06;10376764;28;20114;-67
2022/12/31 17:44:53;;;;;;;7.38;4.50;;;;;;;13.67;100.00;100378.09;10375823;28;20030;-67
2022/12/31 17:49:53;;;;;;;12.02;7.47;;;;;;;13.85;100.00;100392.72;10375864;28;20034;-67
2022/12/31 17:54:53;;;;;;;9.48;6.82;;;;;;;13.77;100.00;100380.25;10378313;28;20366;-68
2022/12/31 17:59:54;;;;;;;22.13;7.20;;;;;;;13.80;100.00;100389.88;10379163;28;20362;-67
2022/12/31 18:04:54;;;;;;;24.05;8.68;;;;;;;13.83;100.00;100401.13;10376798;28;20026;-67
2022/12/31 18:09:55;;;;;;;12.13;8.25;;;;;;;13.86;100.00;100408.81;10374370;28;20474;-67
2022/12/31 18:14:55;;;;;;;13.23;4.60;;;;;;;13.82;100.00;100394.03;10358142;28;20053;-66
2022/12/31 18:19:55;;;;;;;12.80;8.25;;;;;;;13.92;100.00;100402.44;10374122;28;20030;-67
2022/12/31 18:24:56;;;;;;;8.02;6.22;;;;;;;13.92;100.00;100396.19;10373930;28;20038;-67
2022/12/31 18:29:56;;;;;;;19.70;6.68;;;;;;;13.90;100.00;100380.06;10375424;28;20038;-67
2022/12/31 18:34:57;;;;;;;10.65;6.47;;;;;;;13.93;100.00;100401.38;10374559;28;20351;-67
2022/12/31 18:39:57;;;;;;;32.70;19.60;;;;;;;13.90;100.00;100410.00;10375701;28;20097;-67
2022/12/31 18:44:57;;;;;;;19.88;10.30;;;;;;;13.98;100.00;100427.09;10373654;28;20119;-69
2022/12/31 18:49:58;;;;;;;5.20;4.75;;;;;;;13.92;100.00;100428.84;10374716;28;20026;-68
2022/12/31 18:54:58;;;;;;;12.43;9.70;;;;;;;13.74;100.00;100429.72;10376164;28;20026;-68
2022/12/31 18:59:59;;;;;;;47.20;19.67;;;;;;;13.73;100.00;100445.22;10374893;28;20037;-68
2022/12/31 19:04:59;;;;;;;30.08;24.92;;;;;;;13.69;100.00;100437.75;10374911;28;20034;-68
2022/12/31 19:09:59;;;;;;;11.18;6.70;;;;;;;13.64;100.00;100438.41;10374410;28;20378;-68
2022/12/31 19:15:00;;;;;;;12.77;7.60;;;;;;;13.53;100.00;100417.44;10373853;28;20141;-68
2022/12/31 19:20:03;;;;;;;17.83;8.45;;;;;;;13.48;100.00;100426.25;10375046;28;20042;-68
2022/12/31 19:25:35;;;;;;;16.33;8.70;;;;;;;13.53;100.00;100439.19;10376007;28;20033;-68
2022/12/31 19:30:36;;;;;;;25.13;14.98;;;;;;;13.49;100.00;100446.13;10378829;28;20046;-69
2022/12/31 19:35:37;;;;;;;15.57;10.48;;;;;;;13.48;100.00;100458.09;10381591;28;20026;-68
2022/12/31 19:40:37;;;;;;;20.70;9.82;;;;;;;13.51;100.00;100440.47;10382427;28;20112;-69
2022/12/31 19:45:38;;;;;;;28.25;12.13;;;;;;;13.60;100.00;100469.03;10364761;28;20034;-69
2022/12/31 19:50:44;;;;;;;29.90;14.95;;;;;;;13.64;100.00;100464.81;10364398;28;20102;-69
2022/12/31 19:55:45;;;;;;;20.75;11.55;;;;;;;13.62;100.00;100456.84;10381398;28;20034;-69
2022/12/31 20:00:46;;;;;;;24.77;13.93;;;;;;;13.57;100.00;100456.72;10381682;28;20053;-68
2022/12/31 20:05:46;;;;;;;15.57;9.15;;;;;;;13.51;100.00;100495.72;10379360;28;20022;-69
2022/12/31 20:10:47;;;;;;;21.08;7.75;;;;;;;13.53;100.00;100490.88;10382298;28;20037;-69
2022/12/31 20:15:48;;;;;;;10.32;6.05;;;;;;;13.53;100.00;100480.00;10379695;28;20054;-69
2022/12/31 20:20:49;;;;;;;21.40;9.68;;;;;;;13.51;100.00;100478.56;10379571;28;20505;-69
2022/12/31 20:25:59;;;;;;;16.00;7.20;;;;;;;13.43;100.00;100474.25;10384080;28;20409;-70
2022/12/31 20:31:04;;;;;;;20.33;15.38;;;;;;;13.55;100.00;100493.38;10381021;28;20025;-69
2022/12/31 20:36:05;;;;;;;15.68;11.38;;;;;;;13.53;100.00;100484.59;10380328;28;20030;-69
2022/12/31 20:41:10;;;;;;;17.02;11.95;;;;;;;13.63;100.00;100493.91;10379901;28;20386;-69
2022/12/31 20:46:21;;;;;;;22.55;9.05;;;;;;;13.63;100.00;100482.19;10361833;28;20057;-69
2022/12/31 20:51:22;;;;;;;33.95;16.23;;;;;;;13.63;100.00;100491.19;10361566;28;20038;-70
2022/12/31 20:56:23;;;;;;;24.17;12.18;;;;;;;13.64;100.00;100479.22;10378807;28;20045;-70
2022/12/31 21:01:24;;;;;;;17.00;11.02;;;;;;;13.66;100.00;100474.41;10379156;28;20464;-69
2022/12/31 21:06:25;;;;;;;18.05;14.90;;;;;;;13.76;100.00;100487.47;10378372;28;20120;-69
2022/12/31 21:16:44;;;;;;;15.30;8.13;;;;;;;13.69;100.00;100503.06;10377308;28;20054;-69
2022/12/31 21:21:46;;;;;;;17.42;8.73;;;;;;;13.76;100.00;100494.81;10378883;28;20109;-68
2022/12/31 21:26:47;;;;;;;26.77;13.10;;;;;;;13.70;100.00;100504.69;10376317;28;20061;-68
2022/12/31 21:31:47;;;;;;;14.95;9.15;;;;;;;13.61;100.00;100509.59;10378471;28;20065;-69
2022/12/31 21:36:48;;;;;;;20.75;12.43;;;;;;;13.59;100.00;100509.03;10377080;28;20062;-69
2022/12/31 21:41:51;;;;;;;19.42;7.47;;;;;;;13.57;100.00;100522.00;10394008;28;20069;-68
2022/12/31 21:52:32;;;;;;;10.02;7.50;;;;;;;13.38;100.00;100520.34;10377486;28;20045;-69
2022/12/31 21:57:33;;;;;;;16.92;9.50;;;;;;;13.24;100.00;100522.31;10377906;28;20053;-68
2022/12/31 22:07:52;;;;;;;20.20;9.40;;;;;;;12.95;100.00;100532.81;10375735;28;20478;-69
2022/12/31 22:12:52;;;;;;;20.67;10.45;;;;;;;12.93;100.00;100525.97;10376103;28;20033;-69
2022/12/31 22:17:53;;;;;;;16.25;10.27;;;;;;;13.06;100.00;100520.41;10359125;28;20057;-68
2022/12/31 22:22:54;;;;;;;17.98;12.65;;;;;;;13.13;100.00;100526.63;10376139;28;20062;-69
2022/12/31 22:27:54;;;;;;;15.10;9.63;;;;;;;13.19;100.00;100525.72;10375944;28;20042;-69
2022/12/31 22:32:55;;;;;;;18.48;8.93;;;;;;;13.28;100.00;100530.91;10376574;28;20529;-69
2022/12/31 22:37:55;;;;;;;15.90;6.38;;;;;;;13.28;100.00;100522.75;10373519;28;20034;-68
2022/12/31 22:42:55;;;;;;;17.02;8.68;;;;;;;13.35;100.00;100526.22;10376639;28;20044;-68
2022/12/31 22:47:56;;;;;;;7.95;7.05;;;;;;;13.38;100.00;100523.06;10399375;28;20042;-68
2022/12/31 22:52:56;;;;;;;18.95;7.55;;;;;;;13.41;100.00;100541.66;10375320;28;20427;-69
2022/12/31 22:57:57;;;;;;;9.65;7.65;;;;;;;13.39;100.00;100539.13;10374832;28;20433;-68
2022/12/31 23:02:57;;;;;;;28.23;17.00;;;;;;;13.47;100.00;100549.75;10375713;28;20120;-69
2022/12/31 23:07:57;;;;;;;50.10;35.30;;;;;;;13.51;100.00;100574.59;10374340;28;20057;-68
2022/12/31 23:14:38;;;;;;;99.28;74.88;;;;;;;13.51;100.00;100574.59;10374677;28;20033;-69
2022/12/31 23:23:37;;;;;;;145.30;102.07;;;;;;;13.56;100.00;100561.16;10328704;28;20138;-69
2022/12/31 23:28:37;;;;;;;88.30;67.55;;;;;;;13.54;100.00;100566.00;10328673;28;20490;-69
2022/12/31 23:33:38;;;;;;;99.07;68.70;;;;;;;13.52;100.00;100597.19;10329123;28;20109;-69
2022/12/31 23:38:38;;;;;;;56.17;45.78;;;;;;;13.47;100.00;100595.16;10328364;28;20070;-68
2022/12/31 23:43:39;;;;;;;105.10;72.00;;;;;;;13.44;100.00;100595.59;10329121;28;20054;-68